Time;durP1;ratioP1;P1;durP2;ratioP2;P2;SDS_P1;SDS_P2;PMS_P1;PMS_P2;Temp;Humidity;BMP_temperature;BMP_pressure;BME280_temperature;BME280_humidity;BME280_pressure;Samples;Min_cycle;Max_cycle;Signal;HPM_P1;HPM_P2
2023/06/19 00:06:29;;;;;;;11.88;7.45;;;;;;;16.08;65.98;100074.91;30506416;28;101112;-67
2023/06/19 00:21:29;;;;;;;9.18;7.50;;;;;;;15.87;66.58;100062.56;30505404;28;96796;-67
2023/06/19 00:36:29;;;;;;;13.27;7.85;;;;;;;15.67;67.28;100057.16;30503100;28;107054;-67
2023/06/19 00:51:30;;;;;;;10.77;7.78;;;;;;;15.50;68.29;100052.19;30502313;28;98695;-67
2023/06/19 01:06:49;;;;;;;12.63;8.25;;;;;;;15.34;68.65;100042.69;30500886;28;101327;-67
2023/06/19 01:21:50;;;;;;;11.10;8.23;;;;;;;15.21;69.19;100042.66;30499915;28;96787;-67
2023/06/19 01:36:51;;;;;;;11.57;8.65;;;;;;;15.06;70.16;100043.69;30497879;28;96903;-67
2023/06/19 01:51:52;;;;;;;10.03;8.30;;;;;;;14.92;70.29;100049.22;30497003;28;96859;-67
2023/06/19 02:06:52;;;;;;;10.52;8.50;;;;;;;14.77;71.14;100052.06;30495435;28;100648;-67
2023/06/19 02:21:52;;;;;;;12.75;9.20;;;;;;;14.63;71.50;100051.19;30493945;28;109050;-67
2023/06/19 02:36:53;;;;;;;14.20;10.20;;;;;;;14.50;71.98;100049.22;30493007;28;97136;-67
2023/06/19 02:51:53;;;;;;;12.38;8.63;;;;;;;14.42;72.27;100060.97;30481221;28;113167;-67
2023/06/19 03:06:54;;;;;;;12.85;9.93;;;;;;;14.37;72.62;100063.41;30509592;28;116179;-67
2023/06/19 03:21:54;;;;;;;14.02;10.30;;;;;;;14.40;73.14;100071.03;30507522;28;96662;-67
2023/06/19 03:36:55;;;;;;;14.57;9.93;;;;;;;14.44;73.42;100064.25;30507643;28;104333;-67
2023/06/19 03:51:55;;;;;;;13.77;9.48;;;;;;;14.67;73.35;100052.44;30505106;28;96560;-67
2023/06/19 04:06:56;;;;;;;14.07;10.32;;;;;;;15.48;73.17;100054.25;30503008;28;98746;-69
2023/06/19 04:21:56;;;;;;;12.68;9.85;;;;;;;16.21;72.70;100066.00;30502371;28;101775;-67
2023/06/19 04:36:58;;;;;;;13.90;9.93;;;;;;;16.95;72.14;100066.59;30500661;28;104513;-67
2023/06/19 04:51:58;;;;;;;;;;;;;;;17.32;70.41;100072.16;30499888;28;96807;-68
2023/06/19 05:06:59;;;;;;;14.02;9.45;;;;;;;17.51;69.66;100075.75;30498688;28;96812;-67
2023/06/19 05:21:59;;;;;;;12.55;8.82;;;;;;;17.57;68.58;100082.94;30497880;28;96774;-67
2023/06/19 05:37:03;;;;;;;13.27;9.38;;;;;;;18.33;68.88;100109.88;30496287;28;99715;-73
2023/06/19 05:52:04;;;;;;;11.13;8.20;;;;;;;19.87;67.47;100112.44;30493765;28;96755;-74
2023/06/19 06:07:04;;;;;;;9.93;7.05;;;;;;;21.09;64.01;100121.56;30492768;28;98156;-68
2023/06/19 06:22:05;;;;;;;15.98;7.40;;;;;;;22.15;60.92;100139.09;30490594;28;97242;-69
2023/06/19 06:37:07;;;;;;;13.80;7.13;;;;;;;22.94;58.03;100145.34;30470645;28;97465;-69
2023/06/19 06:52:07;;;;;;;;;;;;;;;23.58;55.76;100171.06;30488095;28;104914;-68
2023/06/19 07:07:08;;;;;;;9.93;6.80;;;;;;;23.85;53.65;100169.38;30487568;28;96839;-68
2023/06/19 07:22:09;;;;;;;10.70;7.83;;;;;;;24.53;52.71;100157.91;30487127;28;96736;-75
2023/06/19 07:37:09;;;;;;;8.30;6.57;;;;;;;25.05;50.44;100159.78;30494239;28;96656;-74
2023/06/19 07:52:09;;;;;;;8.13;6.13;;;;;;;25.62;48.28;100168.94;30505226;28;100776;-78
2023/06/19 08:07:10;;;;;;;8.88;6.10;;;;;;;26.50;46.12;100155.25;30502383;28;96733;-68
2023/06/19 08:22:10;;;;;;;8.82;5.95;;;;;;;27.36;43.19;100155.97;30503633;28;99873;-72
2023/06/19 08:37:11;;;;;;;7.72;5.40;;;;;;;27.66;42.22;100154.13;30502714;28;97535;-73
2023/06/19 08:52:12;;;;;;;8.15;5.60;;;;;;;28.87;41.31;100137.06;30498393;28;96839;-71
2023/06/19 09:07:14;;;;;;;11.80;5.50;;;;;;;29.41;38.82;100136.88;30496806;28;97345;-72
2023/06/19 09:22:18;;;;;;;6.10;4.20;;;;;;;30.36;36.32;100131.16;30495721;28;97751;-79
2023/06/19 09:37:24;;;;;;;4.17;2.90;;;;;;;32.27;31.61;100130.34;30492901;28;97332;-69
2023/06/19 09:52:25;;;;;;;6.57;3.80;;;;;;;33.26;28.35;100118.13;30493641;28;96700;-68
2023/06/19 10:07:32;;;;;;;4.63;3.80;;;;;;;32.77;27.38;100101.66;30492804;28;96934;-76
2023/06/19 10:22:32;;;;;;;5.07;4.20;;;;;;;32.05;27.37;100100.91;30491922;28;96749;-69
2023/06/19 10:37:33;;;;;;;6.22;3.92;;;;;;;32.88;26.13;100096.66;30489958;28;106193;-76
2023/06/19 10:52:33;;;;;;;4.80;3.58;;;;;;;34.32;24.67;100083.56;30449628;28;98325;-71
2023/06/19 11:07:34;;;;;;;5.97;3.50;;;;;;;35.47;23.58;100076.06;30452156;28;101163;-73
2023/06/19 11:22:37;;;;;;;4.75;3.50;;;;;;;35.31;22.75;100078.66;30462660;28;98952;-71
2023/06/19 11:37:41;;;;;;;4.73;3.30;;;;;;;35.03;21.85;100073.69;30469999;28;97847;-71
2023/06/19 11:52:44;;;;;;;3.97;3.37;;;;;;;33.30;23.14;100060.31;30464324;28;99816;-72
2023/06/19 12:07:44;;;;;;;4.87;3.47;;;;;;;33.06;23.17;100056.88;30460117;28;98817;-71
2023/06/19 12:22:45;;;;;;;5.60;3.70;;;;;;;34.79;22.47;100043.09;30459184;28;98238;-71
2023/06/19 12:37:45;;;;;;;5.50;4.05;;;;;;;33.68;24.06;100043.81;30458322;28;97503;-71
2023/06/19 12:52:46;;;;;;;5.00;4.22;;;;;;;32.76;24.96;100027.53;30456218;28;98044;-71
2023/06/19 13:07:46;;;;;;;5.28;4.38;;;;;;;33.01;25.79;100032.22;30465246;28;96927;-71
2023/06/19 13:22:46;;;;;;;5.05;4.50;;;;;;;31.78;26.86;100027.53;30455203;28;105207;-72
2023/06/19 13:37:47;;;;;;;6.03;4.68;;;;;;;31.02;28.70;100024.47;30453854;28;96836;-72
2023/06/19 13:52:47;;;;;;;5.15;4.15;;;;;;;31.60;28.32;100021.16;30482855;28;97770;-70
2023/06/19 14:07:47;;;;;;;6.90;4.55;;;;;;;31.61;28.71;100004.31;30455967;28;97784;-73
2023/06/19 14:22:48;;;;;;;7.00;4.70;;;;;;;31.92;28.90;100002.66;30463067;28;97353;-73
2023/06/19 14:37:48;;;;;;;6.43;4.22;;;;;;;30.44;30.07;100017.81;30445275;28;101462;-66
2023/06/19 14:52:48;;;;;;;5.00;4.43;;;;;;;30.19;30.97;100008.13;30474261;28;104150;-65
2023/06/19 15:07:49;;;;;;;6.45;4.28;;;;;;;29.98;31.30;100016.78;30478689;28;110806;-67
2023/06/19 15:22:50;;;;;;;5.35;4.47;;;;;;;29.58;32.11;100010.09;30478151;28;112621;-67
2023/06/19 15:37:50;;;;;;;7.60;4.80;;;;;;;29.18;32.27;100010.47;30477170;28;97357;-66
2023/06/19 15:52:50;;;;;;;6.18;4.70;;;;;;;29.06;32.73;99997.25;30473025;28;97555;-68
2023/06/19 16:07:52;;;;;;;6.30;4.50;;;;;;;28.86;33.37;99996.44;30488564;28;100275;-68
2023/06/19 16:22:52;;;;;;;6.77;4.83;;;;;;;28.86;33.49;99981.91;30490885;28;97519;-70
2023/06/19 16:37:53;;;;;;;5.50;4.72;;;;;;;28.38;34.75;99971.91;30490240;28;97365;-65
2023/06/19 16:52:54;;;;;;;7.47;5.37;;;;;;;28.27;35.25;99971.22;30486188;28;97894;-69
2023/06/19 17:07:54;;;;;;;8.48;5.40;;;;;;;28.29;35.56;99977.22;30486648;28;97323;-68
2023/06/19 17:22:54;;;;;;;5.63;5.03;;;;;;;28.19;35.86;99967.19;30485481;28;97074;-67
2023/06/19 17:37:55;;;;;;;7.50;4.78;;;;;;;28.09;35.51;99966.50;30478794;28;97235;-71
2023/06/19 17:52:55;;;;;;;8.15;5.50;;;;;;;27.35;36.65;99951.13;30483141;28;111184;-67
2023/06/19 18:07:55;;;;;;;7.90;5.30;;;;;;;26.60;38.48;99965.91;30481477;28;114337;-72
2023/06/19 18:22:56;;;;;;;8.68;5.43;;;;;;;25.92;40.02;99970.84;30483087;28;101388;-66
2023/06/19 18:37:56;;;;;;;7.80;5.78;;;;;;;25.30;41.27;99976.41;30479623;28;106694;-68
2023/06/19 18:52:56;;;;;;;16.00;6.43;;;;;;;24.74;43.11;99979.06;30478381;28;101751;-67
2023/06/19 19:07:57;;;;;;;11.45;5.65;;;;;;;24.21;44.46;99992.78;30473718;28;97010;-70
2023/06/19 19:22:57;;;;;;;14.05;6.30;;;;;;;23.77;45.88;99993.88;30476740;28;97069;-69
2023/06/19 19:37:58;;;;;;;43.90;24.80;;;;;;;23.38;47.38;100005.06;30490456;28;96957;-68
2023/06/19 19:52:58;;;;;;;22.65;13.68;;;;;;;23.03;48.49;100023.47;30497124;28;96784;-68
2023/06/19 20:07:59;;;;;;;12.55;7.13;;;;;;;23.37;49.81;100028.69;30475275;28;97119;-70
2023/06/19 20:22:59;;;;;;;12.82;7.05;;;;;;;23.58;50.17;100037.84;30499984;28;107148;-72
2023/06/19 20:38:00;;;;;;;13.77;7.57;;;;;;;23.76;50.00;100043.94;30502012;28;96789;-68
2023/06/19 20:53:00;;;;;;;11.90;7.70;;;;;;;23.41;50.39;100054.25;30500523;28;102335;-74
2023/06/19 21:08:00;;;;;;;12.57;8.38;;;;;;;22.83;51.85;100051.25;30499955;28;96808;-74
2023/06/19 21:23:01;;;;;;;;;;;;;;;22.67;52.75;100057.59;30500099;28;111672;-73
2023/06/19 21:38:01;;;;;;;9.95;7.57;;;;;;;22.65;53.10;100066.00;30516479;28;96861;-70
2023/06/19 21:53:02;;;;;;;16.88;8.90;;;;;;;22.40;53.64;100080.88;30493819;28;97120;-74
2023/06/19 22:08:02;;;;;;;11.23;8.40;;;;;;;21.72;54.93;100077.41;30495310;28;104787;-70
2023/06/19 22:23:03;;;;;;;10.13;7.70;;;;;;;21.39;55.94;100077.16;30493611;28;97719;-75
2023/06/19 22:38:03;;;;;;;9.83;8.13;;;;;;;21.17;56.64;100071.59;30493677;28;97491;-69
2023/06/19 22:53:03;;;;;;;13.33;8.77;;;;;;;21.02;57.20;100066.72;30492666;28;98527;-71
2023/06/19 23:08:04;;;;;;;9.63;7.70;;;;;;;20.68;57.73;100058.53;30497150;28;97664;-67
2023/06/19 23:23:04;;;;;;;15.70;8.97;;;;;;;20.34;58.85;100055.63;30511406;28;96804;-71
2023/06/19 23:38:05;;;;;;;13.17;9.97;;;;;;;20.13;59.56;100059.75;30509615;28;96912;-75
2023/06/19 23:53:05;;;;;;;15.50;9.63;;;;;;;19.82;60.33;100056.38;30508002;28;112078;-75
